sensor_id;sensor_type;location;lat;lon;timestamp;pressure;altitude;pressure_sealevel;temperature;humidity
73085;BME280;62974;49.460;10.892;2023-07-29T00:01:51;97399.03;;;18.56;95.89
73085;BME280;62974;49.460;10.892;2023-07-29T00:04:20;97392.50;;;18.57;95.40
73085;BME280;62974;49.460;10.892;2023-07-29T00:06:48;97381.63;;;18.57;96.10
73085;BME280;62974;49.460;10.892;2023-07-29T00:09:15;97390.38;;;18.32;100.00
73085;BME280;62974;49.460;10.892;2023-07-29T00:11:43;97374.72;;;18.44;98.14
73085;BME280;62974;49.460;10.892;2023-07-29T00:14:11;97384.16;;;18.37;100.00
73085;BME280;62974;49.460;10.892;2023-07-29T00:16:40;97388.50;;;18.33;100.00
73085;BME280;62974;49.460;10.892;2023-07-29T00:19:09;97397.41;;;17.96;100.00
73085;BME280;62974;49.460;10.892;2023-07-29T00:21:37;97390.34;;;17.95;100.00
73085;BME280;62974;49.460;10.892;2023-07-29T00:24:04;97377.63;;;18.33;99.29
73085;BME280;62974;49.460;10.892;2023-07-29T00:26:32;97374.66;;;18.34;98.35
73085;BME280;62974;49.460;10.892;2023-07-29T00:29:00;97381.97;;;18.34;100.00
73085;BME280;62974;49.460;10.892;2023-07-29T00:31:30;97387.94;;;18.30;100.00
73085;BME280;62974;49.460;10.892;2023-07-29T00:33:59;97394.69;;;18.28;100.00
73085;BME280;62974;49.460;10.892;2023-07-29T00:36:26;97385.72;;;18.27;100.00
73085;BME280;62974;49.460;10.892;2023-07-29T00:38:54;97378.91;;;18.25;100.00
73085;BME280;62974;49.460;10.892;2023-07-29T00:41:23;97377.91;;;18.31;100.00
73085;BME280;62974;49.460;10.892;2023-07-29T00:43:52;97385.91;;;18.16;100.00
73085;BME280;62974;49.460;10.892;2023-07-29T00:46:23;97377.84;;;18.26;100.00
73085;BME280;62974;49.460;10.892;2023-07-29T00:48:51;97380.47;;;18.16;100.00
73085;BME280;62974;49.460;10.892;2023-07-29T00:51:21;97382.34;;;18.10;100.00
73085;BME280;62974;49.460;10.892;2023-07-29T00:53:48;97382.34;;;18.15;100.00
73085;BME280;62974;49.460;10.892;2023-07-29T00:56:18;97382.94;;;18.17;100.00
73085;BME280;62974;49.460;10.892;2023-07-29T00:58:46;97374.00;;;18.22;99.48
73085;BME280;62974;49.460;10.892;2023-07-29T01:01:13;97375.84;;;18.16;99.57
73085;BME280;62974;49.460;10.892;2023-07-29T01:03:41;97385.31;;;18.09;100.00
73085;BME280;62974;49.460;10.892;2023-07-29T01:06:14;97377.41;;;18.07;100.00
73085;BME280;62974;49.460;10.892;2023-07-29T01:08:51;97387.75;;;17.78;100.00
73085;BME280;62974;49.460;10.892;2023-07-29T01:11:33;97384.41;;;17.98;100.00
73085;BME280;62974;49.460;10.892;2023-07-29T01:14:04;97383.00;;;17.96;100.00
73085;BME280;62974;49.460;10.892;2023-07-29T01:16:39;97385.81;;;18.06;100.00
73085;BME280;62974;49.460;10.892;2023-07-29T01:19:16;97383.56;;;17.98;100.00
73085;BME280;62974;49.460;10.892;2023-07-29T01:21:48;97375.84;;;18.11;98.16
73085;BME280;62974;49.460;10.892;2023-07-29T01:24:18;97388.59;;;17.57;100.00
73085;BME280;62974;49.460;10.892;2023-07-29T01:26:45;97392.31;;;17.51;100.00
73085;BME280;62974;49.460;10.892;2023-07-29T01:29:13;97365.63;;;17.97;99.91
73085;BME280;62974;49.460;10.892;2023-07-29T01:31:44;97377.47;;;17.86;100.00
73085;BME280;62974;49.460;10.892;2023-07-29T01:34:28;97378.13;;;17.98;100.00
73085;BME280;62974;49.460;10.892;2023-07-29T01:36:57;97371.00;;;17.92;100.00
73085;BME280;62974;49.460;10.892;2023-07-29T01:39:32;97379.16;;;17.92;100.00
73085;BME280;62974;49.460;10.892;2023-07-29T01:42:03;97379.38;;;17.58;100.00
73085;BME280;62974;49.460;10.892;2023-07-29T01:44:30;97383.59;;;17.71;100.00
73085;BME280;62974;49.460;10.892;2023-07-29T01:46:59;97374.16;;;17.78;100.00
73085;BME280;62974;49.460;10.892;2023-07-29T01:49:27;97368.81;;;17.89;100.00
73085;BME280;62974;49.460;10.892;2023-07-29T01:51:54;97374.16;;;17.78;100.00
73085;BME280;62974;49.460;10.892;2023-07-29T01:54:24;97382.16;;;17.42;100.00
73085;BME280;62974;49.460;10.892;2023-07-29T01:56:53;97380.56;;;17.67;100.00
73085;BME280;62974;49.460;10.892;2023-07-29T01:59:20;97389.03;;;17.27;100.00
73085;BME280;62974;49.460;10.892;2023-07-29T02:01:48;97395.41;;;16.95;100.00
73085;BME280;62974;49.460;10.892;2023-07-29T02:04:16;97383.41;;;17.34;100.00
73085;BME280;62974;49.460;10.892;2023-07-29T02:06:43;97376.41;;;17.16;100.00
73085;BME280;62974;49.460;10.892;2023-07-29T02:09:11;97410.41;;;16.30;100.00
73085;BME280;62974;49.460;10.892;2023-07-29T02:11:38;97391.63;;;16.96;100.00
73085;BME280;62974;49.460;10.892;2023-07-29T02:14:07;97363.19;;;17.47;100.00
73085;BME280;62974;49.460;10.892;2023-07-29T02:16:35;97390.31;;;16.60;100.00
73085;BME280;62974;49.460;10.892;2023-07-29T02:19:04;97410.50;;;16.35;100.00
73085;BME280;62974;49.460;10.892;2023-07-29T02:21:32;97370.16;;;16.94;100.00
73085;BME280;62974;49.460;10.892;2023-07-29T02:23:59;97341.47;;;17.47;100.00
73085;BME280;62974;49.460;10.892;2023-07-29T02:26:27;97341.38;;;17.58;100.00
73085;BME280;62974;49.460;10.892;2023-07-29T02:28:54;97341.41;;;17.63;99.56
73085;BME280;62974;49.460;10.892;2023-07-29T02:31:24;97331.88;;;17.61;98.87
73085;BME280;62974;49.460;10.892;2023-07-29T02:33:52;97328.09;;;17.62;98.29
73085;BME280;62974;49.460;10.892;2023-07-29T02:36:20;97327.25;;;17.61;97.97
73085;BME280;62974;49.460;10.892;2023-07-29T02:38:47;97320.19;;;17.60;97.69
73085;BME280;62974;49.460;10.892;2023-07-29T02:41:17;97314.25;;;17.63;97.42
73085;BME280;62974;49.460;10.892;2023-07-29T02:43:48;97304.28;;;17.47;98.70
73085;BME280;62974;49.460;10.892;2023-07-29T02:46:16;97305.72;;;17.55;97.46
73085;BME280;62974;49.460;10.892;2023-07-29T02:48:45;97300.03;;;17.56;96.89
73085;BME280;62974;49.460;10.892;2023-07-29T02:51:13;97303.84;;;17.55;96.77
73085;BME280;62974;49.460;10.892;2023-07-29T02:53:40;97301.91;;;17.56;96.19
73085;BME280;62974;49.460;10.892;2023-07-29T02:56:08;97301.06;;;17.50;96.26
73085;BME280;62974;49.460;10.892;2023-07-29T02:58:36;97320.53;;;16.72;100.00
73085;BME280;62974;49.460;10.892;2023-07-29T03:01:05;97306.53;;;17.28;99.28
73085;BME280;62974;49.460;10.892;2023-07-29T03:03:33;97309.66;;;17.42;96.66
73085;BME280;62974;49.460;10.892;2023-07-29T03:06:03;97315.91;;;17.43;96.74
73085;BME280;62974;49.460;10.892;2023-07-29T03:08:31;97322.31;;;17.31;96.91
73085;BME280;62974;49.460;10.892;2023-07-29T03:11:05;97327.00;;;17.14;100.00
73085;BME280;62974;49.460;10.892;2023-07-29T03:13:33;97335.31;;;17.29;100.00
73085;BME280;62974;49.460;10.892;2023-07-29T03:16:05;97332.91;;;17.33;100.00
73085;BME280;62974;49.460;10.892;2023-07-29T03:18:33;97334.94;;;17.43;98.11
73085;BME280;62974;49.460;10.892;2023-07-29T03:21:01;97353.09;;;16.77;100.00
73085;BME280;62974;49.460;10.892;2023-07-29T03:23:34;97349.34;;;17.00;100.00
73085;BME280;62974;49.460;10.892;2023-07-29T03:26:02;97340.56;;;17.14;100.00
73085;BME280;62974;49.460;10.892;2023-07-29T03:28:38;97358.97;;;16.69;100.00
73085;BME280;62974;49.460;10.892;2023-07-29T03:31:05;97346.69;;;16.83;100.00
73085;BME280;62974;49.460;10.892;2023-07-29T03:33:33;97332.63;;;17.08;100.00
73085;BME280;62974;49.460;10.892;2023-07-29T03:36:01;97339.81;;;16.97;100.00
73085;BME280;62974;49.460;10.892;2023-07-29T03:38:29;97329.41;;;17.11;100.00
73085;BME280;62974;49.460;10.892;2023-07-29T03:40:58;97320.16;;;17.33;99.45
73085;BME280;62974;49.460;10.892;2023-07-29T03:43:25;97317.22;;;17.40;97.86
73085;BME280;62974;49.460;10.892;2023-07-29T03:45:53;97317.69;;;17.32;100.00
73085;BME280;62974;49.460;10.892;2023-07-29T03:48:20;97334.97;;;16.61;100.00
73085;BME280;62974;49.460;10.892;2023-07-29T03:50:48;97333.91;;;16.62;100.00
73085;BME280;62974;49.460;10.892;2023-07-29T03:53:15;97348.41;;;16.34;100.00
73085;BME280;62974;49.460;10.892;2023-07-29T03:55:43;97365.38;;;16.13;100.00
73085;BME280;62974;49.460;10.892;2023-07-29T03:58:12;97342.28;;;16.60;100.00
73085;BME280;62974;49.460;10.892;2023-07-29T04:00:40;97351.59;;;16.31;100.00
73085;BME280;62974;49.460;10.892;2023-07-29T04:03:08;97328.00;;;16.65;100.00
73085;BME280;62974;49.460;10.892;2023-07-29T04:05:35;97312.06;;;16.90;100.00
73085;BME280;62974;49.460;10.892;2023-07-29T04:08:03;97301.22;;;17.12;100.00
73085;BME280;62974;49.460;10.892;2023-07-29T04:10:31;97312.56;;;16.87;100.00
73085;BME280;62974;49.460;10.892;2023-07-29T04:12:58;97314.56;;;16.97;100.00
73085;BME280;62974;49.460;10.892;2023-07-29T04:15:27;97317.28;;;16.97;100.00
73085;BME280;62974;49.460;10.892;2023-07-29T04:17:56;97292.91;;;17.23;100.00
73085;BME280;62974;49.460;10.892;2023-07-29T04:20:23;97316.91;;;16.88;100.00
73085;BME280;62974;49.460;10.892;2023-07-29T04:22:51;97288.81;;;17.21;100.00
73085;BME280;62974;49.460;10.892;2023-07-29T04:25:18;97300.47;;;17.21;100.00
73085;BME280;62974;49.460;10.892;2023-07-29T04:27:46;97293.84;;;17.34;100.00
73085;BME280;62974;49.460;10.892;2023-07-29T04:30:13;97316.22;;;16.98;100.00
73085;BME280;62974;49.460;10.892;2023-07-29T04:32:43;97353.72;;;16.29;100.00
73085;BME280;62974;49.460;10.892;2023-07-29T04:35:11;97331.44;;;16.99;100.00
73085;BME280;62974;49.460;10.892;2023-07-29T04:37:41;97319.25;;;17.01;100.00
73085;BME280;62974;49.460;10.892;2023-07-29T04:40:09;97313.00;;;17.22;100.00
73085;BME280;62974;49.460;10.892;2023-07-29T04:42:37;97281.47;;;17.48;100.00
73085;BME280;62974;49.460;10.892;2023-07-29T04:45:07;97266.06;;;17.80;100.00
73085;BME280;62974;49.460;10.892;2023-07-29T04:47:38;97291.91;;;17.83;100.00
73085;BME280;62974;49.460;10.892;2023-07-29T04:50:08;97293.22;;;17.80;100.00
73085;BME280;62974;49.460;10.892;2023-07-29T04:52:36;97306.44;;;17.72;100.00
73085;BME280;62974;49.460;10.892;2023-07-29T04:55:04;97298.03;;;18.05;100.00
73085;BME280;62974;49.460;10.892;2023-07-29T04:57:31;97301.41;;;17.86;100.00
73085;BME280;62974;49.460;10.892;2023-07-29T04:59:59;97287.25;;;17.83;100.00
73085;BME280;62974;49.460;10.892;2023-07-29T05:02:26;97281.03;;;17.83;100.00
73085;BME280;62974;49.460;10.892;2023-07-29T05:04:54;97274.97;;;17.76;100.00
73085;BME280;62974;49.460;10.892;2023-07-29T05:07:23;97274.19;;;17.80;100.00
73085;BME280;62974;49.460;10.892;2023-07-29T05:09:50;97264.50;;;17.90;100.00
73085;BME280;62974;49.460;10.892;2023-07-29T05:12:18;97277.25;;;17.89;100.00
73085;BME280;62974;49.460;10.892;2023-07-29T05:14:45;97262.41;;;18.02;100.00
73085;BME280;62974;49.460;10.892;2023-07-29T05:17:13;97260.22;;;17.99;100.00
73085;BME280;62974;49.460;10.892;2023-07-29T05:19:41;97268.88;;;17.96;100.00
73085;BME280;62974;49.460;10.892;2023-07-29T05:22:09;97283.34;;;17.69;100.00
73085;BME280;62974;49.460;10.892;2023-07-29T05:24:38;97285.03;;;17.75;100.00
73085;BME280;62974;49.460;10.892;2023-07-29T05:27:06;97297.44;;;17.66;100.00
73085;BME280;62974;49.460;10.892;2023-07-29T05:29:35;97314.13;;;17.53;100.00
73085;BME280;62974;49.460;10.892;2023-07-29T05:32:03;97322.72;;;17.45;100.00
73085;BME280;62974;49.460;10.892;2023-07-29T05:34:30;97328.97;;;17.46;100.00
73085;BME280;62974;49.460;10.892;2023-07-29T05:36:58;97309.44;;;17.70;100.00
73085;BME280;62974;49.460;10.892;2023-07-29T05:39:25;97299.47;;;17.81;100.00
73085;BME280;62974;49.460;10.892;2023-07-29T05:41:54;97351.63;;;17.56;100.00
73085;BME280;62974;49.460;10.892;2023-07-29T05:44:22;97334.19;;;17.52;100.00
73085;BME280;62974;49.460;10.892;2023-07-29T05:46:50;97322.19;;;17.70;100.00
73085;BME280;62974;49.460;10.892;2023-07-29T05:49:17;97319.78;;;17.73;100.00
73085;BME280;62974;49.460;10.892;2023-07-29T05:51:47;97341.66;;;17.62;100.00
73085;BME280;62974;49.460;10.892;2023-07-29T05:54:17;97333.53;;;17.62;100.00
73085;BME280;62974;49.460;10.892;2023-07-29T05:56:45;97298.13;;;17.83;100.00
73085;BME280;62974;49.460;10.892;2023-07-29T05:59:14;97286.31;;;18.00;100.00
73085;BME280;62974;49.460;10.892;2023-07-29T06:01:42;97307.44;;;17.93;100.00
73085;BME280;62974;49.460;10.892;2023-07-29T06:04:09;97289.28;;;17.98;100.00
73085;BME280;62974;49.460;10.892;2023-07-29T06:06:37;97292.78;;;17.94;100.00
73085;BME280;62974;49.460;10.892;2023-07-29T06:09:05;97319.97;;;17.94;100.00
73085;BME280;62974;49.460;10.892;2023-07-29T06:11:32;97294.69;;;17.93;100.00
73085;BME280;62974;49.460;10.892;2023-07-29T06:14:01;97306.38;;;17.94;100.00
73085;BME280;62974;49.460;10.892;2023-07-29T06:16:30;97310.44;;;17.91;100.00
73085;BME280;62974;49.460;10.892;2023-07-29T06:18:58;97295.56;;;17.99;100.00
73085;BME280;62974;49.460;10.892;2023-07-29T06:21:25;97294.44;;;18.00;100.00
73085;BME280;62974;49.460;10.892;2023-07-29T06:23:53;97306.66;;;17.97;100.00
73085;BME280;62974;49.460;10.892;2023-07-29T06:26:20;97307.97;;;17.90;100.00
73085;BME280;62974;49.460;10.892;2023-07-29T06:28:48;97318.59;;;17.91;100.00
73085;BME280;62974;49.460;10.892;2023-07-29T06:31:15;97332.66;;;17.88;100.00
73085;BME280;62974;49.460;10.892;2023-07-29T06:33:44;97361.41;;;17.79;100.00
73085;BME280;62974;49.460;10.892;2023-07-29T06:36:12;97366.84;;;17.79;100.00
73085;BME280;62974;49.460;10.892;2023-07-29T06:38:40;97367.47;;;17.64;100.00
73085;BME280;62974;49.460;10.892;2023-07-29T06:41:08;97371.28;;;17.63;100.00
73085;BME280;62974;49.460;10.892;2023-07-29T06:43:40;97369.00;;;17.55;100.00
73085;BME280;62974;49.460;10.892;2023-07-29T06:46:08;97373.69;;;17.38;100.00
73085;BME280;62974;49.460;10.892;2023-07-29T06:48:36;97372.97;;;17.48;100.00
73085;BME280;62974;49.460;10.892;2023-07-29T06:51:07;97366.88;;;17.57;100.00
73085;BME280;62974;49.460;10.892;2023-07-29T06:53:34;97358.84;;;17.67;100.00
73085;BME280;62974;49.460;10.892;2023-07-29T06:56:02;97373.53;;;17.50;100.00
73085;BME280;62974;49.460;10.892;2023-07-29T06:58:31;97364.22;;;17.62;100.00
73085;BME280;62974;49.460;10.892;2023-07-29T07:00:58;97383.53;;;17.44;100.00
73085;BME280;62974;49.460;10.892;2023-07-29T07:03:29;97361.22;;;17.64;100.00
73085;BME280;62974;49.460;10.892;2023-07-29T07:05:57;97363.09;;;17.58;100.00
73085;BME280;62974;49.460;10.892;2023-07-29T07:08:26;97334.44;;;17.72;100.00
73085;BME280;62974;49.460;10.892;2023-07-29T07:10:57;97345.50;;;17.66;100.00
73085;BME280;62974;49.460;10.892;2023-07-29T07:13:26;97343.47;;;17.56;100.00
73085;BME280;62974;49.460;10.892;2023-07-29T07:15:54;97343.63;;;17.66;100.00
73085;BME280;62974;49.460;10.892;2023-07-29T07:18:21;97318.94;;;17.73;100.00
73085;BME280;62974;49.460;10.892;2023-07-29T07:20:49;97336.44;;;17.82;100.00
73085;BME280;62974;49.460;10.892;2023-07-29T07:23:18;97345.41;;;17.82;100.00
73085;BME280;62974;49.460;10.892;2023-07-29T07:25:47;97353.72;;;17.71;100.00
73085;BME280;62974;49.460;10.892;2023-07-29T07:28:14;97356.56;;;17.86;100.00
73085;BME280;62974;49.460;10.892;2023-07-29T07:30:42;97348.19;;;17.93;100.00
73085;BME280;62974;49.460;10.892;2023-07-29T07:33:10;97353.09;;;17.96;100.00
73085;BME280;62974;49.460;10.892;2023-07-29T07:35:37;97366.09;;;17.89;100.00
73085;BME280;62974;49.460;10.892;2023-07-29T07:38:05;97361.25;;;17.96;100.00
73085;BME280;62974;49.460;10.892;2023-07-29T07:40:33;97366.91;;;17.89;100.00
73085;BME280;62974;49.460;10.892;2023-07-29T07:43:04;97364.13;;;17.79;100.00
73085;BME280;62974;49.460;10.892;2023-07-29T07:45:31;97360.59;;;17.83;100.00
73085;BME280;62974;49.460;10.892;2023-07-29T07:47:59;97371.22;;;17.85;100.00
73085;BME280;62974;49.460;10.892;2023-07-29T07:50:29;97365.78;;;17.85;100.00
73085;BME280;62974;49.460;10.892;2023-07-29T07:52:56;97348.41;;;17.86;100.00
73085;BME280;62974;49.460;10.892;2023-07-29T07:55:24;97353.50;;;17.77;100.00
73085;BME280;62974;49.460;10.892;2023-07-29T07:57:51;97355.97;;;17.79;100.00
73085;BME280;62974;49.460;10.892;2023-07-29T08:00:21;97361.81;;;17.66;100.00
73085;BME280;62974;49.460;10.892;2023-07-29T08:02:48;97364.53;;;17.66;100.00
73085;BME280;62974;49.460;10.892;2023-07-29T08:05:16;97349.56;;;17.63;100.00
73085;BME280;62974;49.460;10.892;2023-07-29T08:07:44;97339.31;;;17.70;100.00
73085;BME280;62974;49.460;10.892;2023-07-29T08:10:12;97337.97;;;17.73;100.00
73085;BME280;62974;49.460;10.892;2023-07-29T08:12:39;97349.09;;;17.71;100.00
73085;BME280;62974;49.460;10.892;2023-07-29T08:15:07;97347.47;;;17.70;100.00
73085;BME280;62974;49.460;10.892;2023-07-29T08:17:36;97359.69;;;17.73;100.00
73085;BME280;62974;49.460;10.892;2023-07-29T08:20:04;97359.69;;;17.73;100.00
73085;BME280;62974;49.460;10.892;2023-07-29T08:22:32;97347.97;;;17.67;100.00
73085;BME280;62974;49.460;10.892;2023-07-29T08:25:01;97352.31;;;17.68;100.00
73085;BME280;62974;49.460;10.892;2023-07-29T08:27:33;97339.25;;;17.65;100.00
73085;BME280;62974;49.460;10.892;2023-07-29T08:30:00;97344.13;;;17.63;100.00
73085;BME280;62974;49.460;10.892;2023-07-29T08:32:28;97353.59;;;17.61;100.00
73085;BME280;62974;49.460;10.892;2023-07-29T08:34:57;97346.88;;;17.68;100.00
73085;BME280;62974;49.460;10.892;2023-07-29T08:37:25;97344.75;;;17.70;100.00
73085;BME280;62974;49.460;10.892;2023-07-29T08:39:53;97346.13;;;17.73;100.00
73085;BME280;62974;49.460;10.892;2023-07-29T08:42:23;97362.34;;;17.68;100.00
73085;BME280;62974;49.460;10.892;2023-07-29T08:44:53;97369.94;;;17.66;100.00
73085;BME280;62974;49.460;10.892;2023-07-29T08:47:21;97362.94;;;17.70;100.00
73085;BME280;62974;49.460;10.892;2023-07-29T08:49:50;97356.72;;;17.74;100.00
73085;BME280;62974;49.460;10.892;2023-07-29T08:52:21;97365.44;;;17.76;100.00
73085;BME280;62974;49.460;10.892;2023-07-29T08:54:49;97358.97;;;17.82;100.00
73085;BME280;62974;49.460;10.892;2023-07-29T08:57:19;97352.50;;;17.89;100.00
73085;BME280;62974;49.460;10.892;2023-07-29T08:59:48;97350.06;;;17.87;100.00
73085;BME280;62974;49.460;10.892;2023-07-29T09:02:15;97351.44;;;17.90;100.00
73085;BME280;62974;49.460;10.892;2023-07-29T09:04:46;97344.97;;;17.96;100.00
73085;BME280;62974;49.460;10.892;2023-07-29T09:07:14;97356.28;;;18.14;100.00
73085;BME280;62974;49.460;10.892;2023-07-29T09:09:43;97375.66;;;17.91;100.00
73085;BME280;62974;49.460;10.892;2023-07-29T09:12:10;97383.78;;;17.91;100.00
73085;BME280;62974;49.460;10.892;2023-07-29T09:14:38;97403.06;;;17.90;100.00
73085;BME280;62974;49.460;10.892;2023-07-29T09:17:07;97410.06;;;17.86;100.00
73085;BME280;62974;49.460;10.892;2023-07-29T09:19:35;97411.97;;;17.85;100.00
73085;BME280;62974;49.460;10.892;2023-07-29T09:22:03;97411.22;;;17.90;100.00
73085;BME280;62974;49.460;10.892;2023-07-29T09:24:30;97400.69;;;17.98;100.00
73085;BME280;62974;49.460;10.892;2023-07-29T09:27:00;97404.53;;;18.02;100.00
73085;BME280;62974;49.460;10.892;2023-07-29T09:29:28;97393.41;;;18.04;100.00
73085;BME280;62974;49.460;10.892;2023-07-29T09:32:17;97394.56;;;18.13;100.00
73085;BME280;62974;49.460;10.892;2023-07-29T09:34:45;97414.19;;;18.20;100.00
73085;BME280;62974;49.460;10.892;2023-07-29T09:37:15;97426.19;;;18.24;100.00
73085;BME280;62974;49.460;10.892;2023-07-29T09:39:45;97419.16;;;18.28;100.00
73085;BME280;62974;49.460;10.892;2023-07-29T09:42:17;97422.41;;;18.25;100.00
73085;BME280;62974;49.460;10.892;2023-07-29T09:44:46;97424.91;;;18.31;100.00
73085;BME280;62974;49.460;10.892;2023-07-29T09:47:20;97414.06;;;18.37;100.00
73085;BME280;62974;49.460;10.892;2023-07-29T09:49:49;97403.00;;;18.80;100.00
73085;BME280;62974;49.460;10.892;2023-07-29T09:52:17;97398.91;;;18.77;100.00
73085;BME280;62974;49.460;10.892;2023-07-29T09:54:46;97400.28;;;18.80;100.00
73085;BME280;62974;49.460;10.892;2023-07-29T09:57:15;97402.28;;;19.00;100.00
73085;BME280;62974;49.460;10.892;2023-07-29T09:59:53;97399.63;;;19.05;100.00
73085;BME280;62974;49.460;10.892;2023-07-29T10:02:21;97395.81;;;19.11;100.00
73085;BME280;62974;49.460;10.892;2023-07-29T10:04:49;97400.47;;;19.10;100.00
73085;BME280;62974;49.460;10.892;2023-07-29T10:07:17;97409.47;;;19.16;100.00
73085;BME280;62974;49.460;10.892;2023-07-29T10:09:45;97409.25;;;19.22;100.00
73085;BME280;62974;49.460;10.892;2023-07-29T10:12:14;97406.00;;;19.36;100.00
73085;BME280;62974;49.460;10.892;2023-07-29T10:14:50;97415.13;;;19.56;100.00
73085;BME280;62974;49.460;10.892;2023-07-29T10:17:19;97407.47;;;19.48;100.00
73085;BME280;62974;49.460;10.892;2023-07-29T10:19:48;97399.31;;;19.53;100.00
73085;BME280;62974;49.460;10.892;2023-07-29T10:22:17;97394.09;;;19.47;100.00
73085;BME280;62974;49.460;10.892;2023-07-29T10:24:48;97394.41;;;19.55;100.00
73085;BME280;62974;49.460;10.892;2023-07-29T10:27:18;97397.13;;;19.55;100.00
73085;BME280;62974;49.460;10.892;2023-07-29T10:29:48;97384.63;;;19.64;100.00
73085;BME280;62974;49.460;10.892;2023-07-29T10:32:16;97381.88;;;19.59;100.00
73085;BME280;62974;49.460;10.892;2023-07-29T10:34:44;97372.63;;;19.55;100.00
73085;BME280;62974;49.460;10.892;2023-07-29T10:37:14;97376.19;;;19.61;100.00
73085;BME280;62974;49.460;10.892;2023-07-29T10:39:52;97376.22;;;19.76;100.00
73085;BME280;62974;49.460;10.892;2023-07-29T10:42:20;97379.53;;;20.18;100.00
73085;BME280;62974;49.460;10.892;2023-07-29T10:44:51;97383.41;;;20.38;100.00
73085;BME280;62974;49.460;10.892;2023-07-29T10:47:22;97376.03;;;20.33;100.00
73085;BME280;62974;49.460;10.892;2023-07-29T10:49:52;97371.38;;;20.49;100.00
73085;BME280;62974;49.460;10.892;2023-07-29T10:52:36;97353.63;;;20.61;100.00
73085;BME280;62974;49.460;10.892;2023-07-29T10:55:26;97353.34;;;20.63;100.00
73085;BME280;62974;49.460;10.892;2023-07-29T10:58:05;97337.56;;;20.50;100.00
73085;BME280;62974;49.460;10.892;2023-07-29T11:00:35;97355.28;;;20.32;100.00
73085;BME280;62974;49.460;10.892;2023-07-29T11:03:05;97339.50;;;20.34;100.00
73085;BME280;62974;49.460;10.892;2023-07-29T11:05:49;97351.19;;;20.35;100.00
73085;BME280;62974;49.460;10.892;2023-07-29T11:08:21;97350.41;;;20.29;100.00
73085;BME280;62974;49.460;10.892;2023-07-29T11:10:58;97347.31;;;20.81;100.00
73085;BME280;62974;49.460;10.892;2023-07-29T11:13:27;97316.16;;;20.92;100.00
73085;BME280;62974;49.460;10.892;2023-07-29T11:15:57;97300.25;;;21.09;100.00
73085;BME280;62974;49.460;10.892;2023-07-29T11:18:29;97310.25;;;21.34;100.00
73085;BME280;62974;49.460;10.892;2023-07-29T11:20:57;97304.09;;;21.08;100.00
73085;BME280;62974;49.460;10.892;2023-07-29T11:23:30;97302.19;;;20.99;100.00
73085;BME280;62974;49.460;10.892;2023-07-29T11:25:58;97302.25;;;20.89;100.00
73085;BME280;62974;49.460;10.892;2023-07-29T11:28:26;97303.31;;;20.98;100.00
73085;BME280;62974;49.460;10.892;2023-07-29T11:30:56;97303.53;;;21.17;100.00
73085;BME280;62974;49.460;10.892;2023-07-29T11:33:25;97306.88;;;20.93;100.00
73085;BME280;62974;49.460;10.892;2023-07-29T11:35:55;97310.97;;;20.91;100.00
73085;BME280;62974;49.460;10.892;2023-07-29T11:38:22;97316.94;;;21.13;100.00
73085;BME280;62974;49.460;10.892;2023-07-29T11:40:54;97311.25;;;20.89;100.00
73085;BME280;62974;49.460;10.892;2023-07-29T11:43:22;97310.97;;;20.96;100.00
73085;BME280;62974;49.460;10.892;2023-07-29T11:45:51;97305.47;;;21.01;100.00
73085;BME280;62974;49.460;10.892;2023-07-29T11:48:27;97292.97;;;21.88;100.00
73085;BME280;62974;49.460;10.892;2023-07-29T11:50:55;97291.34;;;21.87;100.00
73085;BME280;62974;49.460;10.892;2023-07-29T11:53:25;97272.22;;;21.82;100.00
73085;BME280;62974;49.460;10.892;2023-07-29T11:55:53;97279.66;;;21.81;100.00
73085;BME280;62974;49.460;10.892;2023-07-29T11:58:21;97269.47;;;21.87;100.00
73085;BME280;62974;49.460;10.892;2023-07-29T12:00:49;97254.78;;;22.40;99.92
73085;BME280;62974;49.460;10.892;2023-07-29T12:03:17;97259.63;;;21.86;100.00
73085;BME280;62974;49.460;10.892;2023-07-29T12:05:46;97252.13;;;21.68;100.00
73085;BME280;62974;49.460;10.892;2023-07-29T12:08:15;97252.09;;;22.07;100.00
73085;BME280;62974;49.460;10.892;2023-07-29T12:10:43;97251.63;;;22.28;98.74
73085;BME280;62974;49.460;10.892;2023-07-29T12:13:11;97253.91;;;22.21;98.81
73085;BME280;62974;49.460;10.892;2023-07-29T12:15:39;97246.66;;;22.01;100.00
73085;BME280;62974;49.460;10.892;2023-07-29T12:18:07;97246.88;;;22.39;96.25
73085;BME280;62974;49.460;10.892;2023-07-29T12:20:37;97243.91;;;22.59;94.80
73085;BME280;62974;49.460;10.892;2023-07-29T12:23:08;97248.19;;;22.41;95.29
73085;BME280;62974;49.460;10.892;2023-07-29T12:25:38;97236.66;;;22.21;95.13
73085;BME280;62974;49.460;10.892;2023-07-29T12:28:06;97233.22;;;22.34;94.88
73085;BME280;62974;49.460;10.892;2023-07-29T12:30:34;97235.97;;;22.58;95.00
73085;BME280;62974;49.460;10.892;2023-07-29T12:33:02;97227.31;;;22.22;93.39
73085;BME280;62974;49.460;10.892;2023-07-29T12:35:36;97239.78;;;22.09;95.65
73085;BME280;62974;49.460;10.892;2023-07-29T12:38:04;97230.69;;;22.42;91.83
73085;BME280;62974;49.460;10.892;2023-07-29T12:40:38;97239.00;;;22.04;95.78
73085;BME280;62974;49.460;10.892;2023-07-29T12:43:05;97234.34;;;22.33;94.21
73085;BME280;62974;49.460;10.892;2023-07-29T12:48:03;97224.28;;;22.52;91.21
73085;BME280;62974;49.460;10.892;2023-07-29T12:50:31;97232.34;;;22.38;94.11
73085;BME280;62974;49.460;10.892;2023-07-29T12:52:58;97220.19;;;22.49;92.79